Terminal Aerodrome Forecast
Issued by NWS

Home | Current Version | Previous Version | Text Only | Print | Product List | Glossary On
Versions: 1 2 3 4 5 6 7 8 9 10 11 12
119
FTUS43 KGRB 192335
TAFAUW
TAF
KAUW 192335Z 2000/2024 10005KT P6SM SCT250
     FM200900 11006KT P6SM BKN150 WS010/17035KT
     FM201100 12007KT 6SM BR BKN150 WS010/20035KT
     FM201400 13008G13KT 5SM BR OVC045 WS010/17035KT
     FM201700 14011G19KT 3SM BR BKN025
     FM202100 13012G20KT 1 1/2SM -SHRA BR OVC006=

USA.gov is the U.S. government's official web portal to all federal, state and local government web resources and services.